sensor_id;sensor_type;location;lat;lon;timestamp;P1;durP1;ratioP1;P2;durP2;ratioP2
1885;SDS011;943;51.568;6.998;2023-05-27T00:00:17;16.20;;;7.00;;
1885;SDS011;943;51.568;6.998;2023-05-27T00:02:45;13.80;;;5.50;;
1885;SDS011;943;51.568;6.998;2023-05-27T00:05:13;16.10;;;5.90;;
1885;SDS011;943;51.568;6.998;2023-05-27T00:07:43;18.73;;;5.07;;
1885;SDS011;943;51.568;6.998;2023-05-27T00:10:11;16.10;;;5.53;;
1885;SDS011;943;51.568;6.998;2023-05-27T00:12:39;12.67;;;5.40;;
1885;SDS011;943;51.568;6.998;2023-05-27T00:15:07;17.10;;;5.13;;
1885;SDS011;943;51.568;6.998;2023-05-27T00:17:36;13.13;;;5.90;;
1885;SDS011;943;51.568;6.998;2023-05-27T00:20:08;17.83;;;5.60;;
1885;SDS011;943;51.568;6.998;2023-05-27T00:22:40;15.93;;;5.87;;
1885;SDS011;943;51.568;6.998;2023-05-27T00:25:08;12.00;;;5.50;;
1885;SDS011;943;51.568;6.998;2023-05-27T00:27:36;17.53;;;6.57;;
1885;SDS011;943;51.568;6.998;2023-05-27T00:30:04;20.27;;;8.27;;
1885;SDS011;943;51.568;6.998;2023-05-27T00:32:34;17.53;;;5.87;;
1885;SDS011;943;51.568;6.998;2023-05-27T00:35:02;14.80;;;4.87;;
1885;SDS011;943;51.568;6.998;2023-05-27T00:37:31;15.40;;;5.50;;
1885;SDS011;943;51.568;6.998;2023-05-27T00:39:59;11.00;;;6.03;;
1885;SDS011;943;51.568;6.998;2023-05-27T00:42:34;16.40;;;5.93;;
1885;SDS011;943;51.568;6.998;2023-05-27T00:45:06;10.60;;;5.43;;
1885;SDS011;943;51.568;6.998;2023-05-27T00:47:35;18.57;;;6.60;;
1885;SDS011;943;51.568;6.998;2023-05-27T00:50:04;17.50;;;6.73;;
1885;SDS011;943;51.568;6.998;2023-05-27T00:52:34;16.67;;;7.30;;
1885;SDS011;943;51.568;6.998;2023-05-27T00:55:02;15.43;;;5.90;;
1885;SDS011;943;51.568;6.998;2023-05-27T00:57:33;14.10;;;5.53;;
1885;SDS011;943;51.568;6.998;2023-05-27T01:00:02;18.80;;;5.47;;
1885;SDS011;943;51.568;6.998;2023-05-27T01:02:37;18.37;;;6.70;;
1885;SDS011;943;51.568;6.998;2023-05-27T01:05:09;12.53;;;5.87;;
1885;SDS011;943;51.568;6.998;2023-05-27T01:10:51;13.53;;;5.90;;
1885;SDS011;943;51.568;6.998;2023-05-27T01:13:57;14.00;;;5.87;;
1885;SDS011;943;51.568;6.998;2023-05-27T01:16:30;14.13;;;5.80;;
1885;SDS011;943;51.568;6.998;2023-05-27T01:19:13;17.00;;;5.80;;
1885;SDS011;943;51.568;6.998;2023-05-27T01:22:00;14.77;;;5.77;;
1885;SDS011;943;51.568;6.998;2023-05-27T01:24:31;21.60;;;6.00;;
1885;SDS011;943;51.568;6.998;2023-05-27T01:26:59;13.90;;;6.30;;
1885;SDS011;943;51.568;6.998;2023-05-27T01:29:28;16.17;;;5.80;;
1885;SDS011;943;51.568;6.998;2023-05-27T01:38:13;18.57;;;5.60;;
1885;SDS011;943;51.568;6.998;2023-05-27T01:40:48;14.37;;;5.90;;
1885;SDS011;943;51.568;6.998;2023-05-27T01:43:18;15.33;;;5.00;;
1885;SDS011;943;51.568;6.998;2023-05-27T01:45:48;12.13;;;5.27;;
1885;SDS011;943;51.568;6.998;2023-05-27T01:48:17;9.93;;;5.00;;
1885;SDS011;943;51.568;6.998;2023-05-27T01:50:46;19.20;;;7.00;;
1885;SDS011;943;51.568;6.998;2023-05-27T01:53:14;15.90;;;6.20;;
1885;SDS011;943;51.568;6.998;2023-05-27T01:55:42;14.13;;;6.07;;
1885;SDS011;943;51.568;6.998;2023-05-27T01:58:11;18.63;;;6.77;;
1885;SDS011;943;51.568;6.998;2023-05-27T02:00:39;21.03;;;5.80;;
1885;SDS011;943;51.568;6.998;2023-05-27T02:03:07;16.87;;;5.80;;
1885;SDS011;943;51.568;6.998;2023-05-27T02:05:36;12.20;;;5.13;;
1885;SDS011;943;51.568;6.998;2023-05-27T02:08:04;22.27;;;6.73;;
1885;SDS011;943;51.568;6.998;2023-05-27T02:10:32;21.77;;;6.20;;
1885;SDS011;943;51.568;6.998;2023-05-27T02:12:59;16.83;;;5.60;;
1885;SDS011;943;51.568;6.998;2023-05-27T02:15:28;18.00;;;6.03;;
1885;SDS011;943;51.568;6.998;2023-05-27T02:17:56;15.07;;;6.17;;
1885;SDS011;943;51.568;6.998;2023-05-27T02:20:25;10.80;;;5.60;;
1885;SDS011;943;51.568;6.998;2023-05-27T02:22:53;19.17;;;5.43;;
1885;SDS011;943;51.568;6.998;2023-05-27T02:25:21;13.27;;;6.80;;
1885;SDS011;943;51.568;6.998;2023-05-27T02:27:49;17.63;;;6.00;;
1885;SDS011;943;51.568;6.998;2023-05-27T02:30:19;11.80;;;6.00;;
1885;SDS011;943;51.568;6.998;2023-05-27T02:32:47;14.53;;;6.77;;
1885;SDS011;943;51.568;6.998;2023-05-27T02:35:16;15.30;;;6.07;;
1885;SDS011;943;51.568;6.998;2023-05-27T02:37:44;21.37;;;5.73;;
1885;SDS011;943;51.568;6.998;2023-05-27T02:40:11;12.60;;;7.10;;
1885;SDS011;943;51.568;6.998;2023-05-27T02:42:53;19.80;;;6.53;;
1885;SDS011;943;51.568;6.998;2023-05-27T02:45:23;14.67;;;6.57;;
1885;SDS011;943;51.568;6.998;2023-05-27T02:47:51;19.67;;;7.30;;
1885;SDS011;943;51.568;6.998;2023-05-27T02:50:22;11.23;;;6.50;;
1885;SDS011;943;51.568;6.998;2023-05-27T02:52:50;20.17;;;6.67;;
1885;SDS011;943;51.568;6.998;2023-05-27T02:55:18;22.30;;;6.40;;
1885;SDS011;943;51.568;6.998;2023-05-27T02:57:46;21.80;;;7.03;;
1885;SDS011;943;51.568;6.998;2023-05-27T03:00:14;16.77;;;7.40;;
1885;SDS011;943;51.568;6.998;2023-05-27T03:02:44;15.30;;;6.80;;
1885;SDS011;943;51.568;6.998;2023-05-27T03:05:12;17.80;;;6.20;;
1885;SDS011;943;51.568;6.998;2023-05-27T03:07:41;16.37;;;6.57;;
1885;SDS011;943;51.568;6.998;2023-05-27T03:10:09;17.97;;;7.33;;
1885;SDS011;943;51.568;6.998;2023-05-27T03:12:37;14.30;;;6.50;;
1885;SDS011;943;51.568;6.998;2023-05-27T03:15:05;11.67;;;6.93;;
1885;SDS011;943;51.568;6.998;2023-05-27T03:17:35;15.40;;;6.80;;
1885;SDS011;943;51.568;6.998;2023-05-27T03:20:05;18.70;;;8.67;;
1885;SDS011;943;51.568;6.998;2023-05-27T03:22:35;22.70;;;6.90;;
1885;SDS011;943;51.568;6.998;2023-05-27T03:25:03;16.70;;;6.10;;
1885;SDS011;943;51.568;6.998;2023-05-27T03:27:33;24.70;;;7.20;;
1885;SDS011;943;51.568;6.998;2023-05-27T03:30:05;11.90;;;6.80;;
1885;SDS011;943;51.568;6.998;2023-05-27T03:32:41;21.73;;;7.13;;
1885;SDS011;943;51.568;6.998;2023-05-27T03:35:10;17.80;;;7.00;;
1885;SDS011;943;51.568;6.998;2023-05-27T03:37:37;22.13;;;7.17;;
1885;SDS011;943;51.568;6.998;2023-05-27T03:40:07;17.97;;;7.50;;
1885;SDS011;943;51.568;6.998;2023-05-27T03:42:37;13.53;;;6.93;;
1885;SDS011;943;51.568;6.998;2023-05-27T03:45:05;17.30;;;7.20;;
1885;SDS011;943;51.568;6.998;2023-05-27T03:47:35;24.13;;;7.57;;
1885;SDS011;943;51.568;6.998;2023-05-27T03:50:03;23.80;;;7.03;;
1885;SDS011;943;51.568;6.998;2023-05-27T03:52:32;15.33;;;7.07;;
1885;SDS011;943;51.568;6.998;2023-05-27T03:55:00;13.47;;;6.57;;
1885;SDS011;943;51.568;6.998;2023-05-27T03:57:28;18.60;;;7.07;;
1885;SDS011;943;51.568;6.998;2023-05-27T03:59:56;17.37;;;6.70;;
1885;SDS011;943;51.568;6.998;2023-05-27T04:02:24;17.77;;;10.10;;
1885;SDS011;943;51.568;6.998;2023-05-27T04:04:52;19.13;;;7.97;;
1885;SDS011;943;51.568;6.998;2023-05-27T04:07:21;16.03;;;7.40;;
1885;SDS011;943;51.568;6.998;2023-05-27T04:09:53;21.77;;;7.97;;
1885;SDS011;943;51.568;6.998;2023-05-27T04:12:21;12.77;;;6.43;;
1885;SDS011;943;51.568;6.998;2023-05-27T04:14:50;22.87;;;7.20;;
1885;SDS011;943;51.568;6.998;2023-05-27T04:17:18;22.60;;;8.00;;
1885;SDS011;943;51.568;6.998;2023-05-27T04:19:46;17.60;;;8.20;;
1885;SDS011;943;51.568;6.998;2023-05-27T04:22:16;11.87;;;7.03;;
1885;SDS011;943;51.568;6.998;2023-05-27T04:24:45;12.47;;;5.70;;
1885;SDS011;943;51.568;6.998;2023-05-27T04:27:13;16.70;;;6.90;;
1885;SDS011;943;51.568;6.998;2023-05-27T04:29:43;17.40;;;6.53;;
1885;SDS011;943;51.568;6.998;2023-05-27T04:32:12;19.23;;;8.70;;
1885;SDS011;943;51.568;6.998;2023-05-27T04:34:40;16.37;;;7.77;;
1885;SDS011;943;51.568;6.998;2023-05-27T04:37:08;20.17;;;6.87;;
1885;SDS011;943;51.568;6.998;2023-05-27T04:39:37;12.87;;;6.10;;
1885;SDS011;943;51.568;6.998;2023-05-27T04:42:13;23.00;;;8.93;;
1885;SDS011;943;51.568;6.998;2023-05-27T04:44:46;14.90;;;6.87;;
1885;SDS011;943;51.568;6.998;2023-05-27T04:47:17;14.93;;;6.83;;
1885;SDS011;943;51.568;6.998;2023-05-27T04:49:45;26.67;;;8.50;;
1885;SDS011;943;51.568;6.998;2023-05-27T04:52:14;23.17;;;7.33;;
1885;SDS011;943;51.568;6.998;2023-05-27T04:54:42;15.27;;;6.40;;
1885;SDS011;943;51.568;6.998;2023-05-27T04:57:22;15.63;;;6.70;;
1885;SDS011;943;51.568;6.998;2023-05-27T04:59:50;20.53;;;6.20;;
1885;SDS011;943;51.568;6.998;2023-05-27T05:02:28;16.70;;;6.70;;
1885;SDS011;943;51.568;6.998;2023-05-27T05:05:12;12.07;;;7.40;;
1885;SDS011;943;51.568;6.998;2023-05-27T05:07:41;13.37;;;7.00;;
1885;SDS011;943;51.568;6.998;2023-05-27T05:10:12;13.10;;;6.67;;
1885;SDS011;943;51.568;6.998;2023-05-27T05:12:52;16.00;;;6.70;;
1885;SDS011;943;51.568;6.998;2023-05-27T05:15:21;11.80;;;5.87;;
1885;SDS011;943;51.568;6.998;2023-05-27T05:17:50;26.13;;;7.10;;
1885;SDS011;943;51.568;6.998;2023-05-27T05:20:21;14.73;;;5.43;;
1885;SDS011;943;51.568;6.998;2023-05-27T05:22:49;14.37;;;6.33;;
1885;SDS011;943;51.568;6.998;2023-05-27T05:25:17;15.97;;;7.10;;
1885;SDS011;943;51.568;6.998;2023-05-27T05:27:48;18.73;;;9.03;;
1885;SDS011;943;51.568;6.998;2023-05-27T05:30:18;18.23;;;5.77;;
1885;SDS011;943;51.568;6.998;2023-05-27T05:32:46;15.40;;;6.50;;
1885;SDS011;943;51.568;6.998;2023-05-27T05:35:15;17.07;;;6.50;;
1885;SDS011;943;51.568;6.998;2023-05-27T05:37:49;13.17;;;6.03;;
1885;SDS011;943;51.568;6.998;2023-05-27T05:40:17;15.93;;;6.80;;
1885;SDS011;943;51.568;6.998;2023-05-27T05:43:00;14.50;;;5.70;;
1885;SDS011;943;51.568;6.998;2023-05-27T05:45:28;12.60;;;5.60;;
1885;SDS011;943;51.568;6.998;2023-05-27T05:47:57;9.27;;;4.80;;
1885;SDS011;943;51.568;6.998;2023-05-27T05:50:29;13.10;;;4.87;;
1885;SDS011;943;51.568;6.998;2023-05-27T05:52:58;11.40;;;6.20;;
1885;SDS011;943;51.568;6.998;2023-05-27T05:55:26;18.37;;;5.80;;
1885;SDS011;943;51.568;6.998;2023-05-27T05:57:56;18.43;;;5.57;;
1885;SDS011;943;51.568;6.998;2023-05-27T06:00:24;16.03;;;6.20;;
1885;SDS011;943;51.568;6.998;2023-05-27T06:03:10;11.07;;;5.50;;
1885;SDS011;943;51.568;6.998;2023-05-27T06:05:46;13.07;;;5.20;;
1885;SDS011;943;51.568;6.998;2023-05-27T06:08:14;10.10;;;5.47;;
1885;SDS011;943;51.568;6.998;2023-05-27T06:10:50;11.83;;;5.43;;
1885;SDS011;943;51.568;6.998;2023-05-27T06:13:18;14.00;;;5.20;;
1885;SDS011;943;51.568;6.998;2023-05-27T06:15:49;16.03;;;5.30;;
1885;SDS011;943;51.568;6.998;2023-05-27T06:18:17;11.53;;;4.37;;
1885;SDS011;943;51.568;6.998;2023-05-27T06:20:45;12.07;;;4.73;;
1885;SDS011;943;51.568;6.998;2023-05-27T06:23:13;10.93;;;5.10;;
1885;SDS011;943;51.568;6.998;2023-05-27T06:25:41;24.07;;;7.20;;
1885;SDS011;943;51.568;6.998;2023-05-27T06:28:09;12.83;;;4.67;;
1885;SDS011;943;51.568;6.998;2023-05-27T06:30:37;11.00;;;5.33;;
1885;SDS011;943;51.568;6.998;2023-05-27T06:33:09;12.63;;;5.70;;
1885;SDS011;943;51.568;6.998;2023-05-27T06:35:37;16.70;;;6.00;;
1885;SDS011;943;51.568;6.998;2023-05-27T06:38:05;12.83;;;4.70;;
1885;SDS011;943;51.568;6.998;2023-05-27T06:40:33;15.70;;;5.37;;
1885;SDS011;943;51.568;6.998;2023-05-27T06:43:05;13.10;;;6.23;;
1885;SDS011;943;51.568;6.998;2023-05-27T06:45:45;13.57;;;5.50;;
1885;SDS011;943;51.568;6.998;2023-05-27T06:48:49;14.50;;;5.90;;
1885;SDS011;943;51.568;6.998;2023-05-27T06:51:17;18.90;;;6.00;;
1885;SDS011;943;51.568;6.998;2023-05-27T06:53:49;11.53;;;5.30;;
1885;SDS011;943;51.568;6.998;2023-05-27T06:56:22;14.13;;;5.30;;
1885;SDS011;943;51.568;6.998;2023-05-27T06:59:10;13.83;;;6.40;;
1885;SDS011;943;51.568;6.998;2023-05-27T07:01:38;19.23;;;5.60;;
1885;SDS011;943;51.568;6.998;2023-05-27T07:04:10;12.57;;;5.87;;
1885;SDS011;943;51.568;6.998;2023-05-27T07:06:58;10.80;;;5.10;;
1885;SDS011;943;51.568;6.998;2023-05-27T07:09:26;14.10;;;5.03;;
1885;SDS011;943;51.568;6.998;2023-05-27T07:11:54;11.10;;;5.70;;
1885;SDS011;943;51.568;6.998;2023-05-27T07:14:48;16.10;;;4.87;;
1885;SDS011;943;51.568;6.998;2023-05-27T07:17:17;12.40;;;5.53;;
1885;SDS011;943;51.568;6.998;2023-05-27T07:19:46;15.90;;;6.03;;
1885;SDS011;943;51.568;6.998;2023-05-27T07:22:17;16.70;;;5.77;;
1885;SDS011;943;51.568;6.998;2023-05-27T07:24:46;18.67;;;5.90;;
1885;SDS011;943;51.568;6.998;2023-05-27T07:27:14;16.27;;;7.80;;
1885;SDS011;943;51.568;6.998;2023-05-27T07:29:51;12.60;;;6.00;;
1885;SDS011;943;51.568;6.998;2023-05-27T07:32:41;13.17;;;6.10;;
1885;SDS011;943;51.568;6.998;2023-05-27T07:35:11;13.83;;;5.50;;
1885;SDS011;943;51.568;6.998;2023-05-27T07:37:40;16.07;;;6.70;;
1885;SDS011;943;51.568;6.998;2023-05-27T07:40:08;14.10;;;7.10;;
1885;SDS011;943;51.568;6.998;2023-05-27T07:42:39;13.93;;;6.67;;
1885;SDS011;943;51.568;6.998;2023-05-27T07:45:07;15.13;;;5.53;;
1885;SDS011;943;51.568;6.998;2023-05-27T07:47:37;17.50;;;7.93;;
1885;SDS011;943;51.568;6.998;2023-05-27T07:50:05;12.30;;;6.30;;
1885;SDS011;943;51.568;6.998;2023-05-27T07:52:52;16.27;;;5.87;;
1885;SDS011;943;51.568;6.998;2023-05-27T07:55:23;16.03;;;6.43;;
1885;SDS011;943;51.568;6.998;2023-05-27T07:57:52;17.00;;;6.70;;
1885;SDS011;943;51.568;6.998;2023-05-27T08:00:27;12.63;;;6.27;;
1885;SDS011;943;51.568;6.998;2023-05-27T08:02:55;12.57;;;6.20;;
1885;SDS011;943;51.568;6.998;2023-05-27T08:05:41;17.47;;;6.60;;
1885;SDS011;943;51.568;6.998;2023-05-27T08:08:19;14.27;;;6.67;;
1885;SDS011;943;51.568;6.998;2023-05-27T08:11:02;21.83;;;7.00;;
1885;SDS011;943;51.568;6.998;2023-05-27T08:13:48;13.40;;;6.10;;
1885;SDS011;943;51.568;6.998;2023-05-27T08:16:40;13.67;;;5.73;;
1885;SDS011;943;51.568;6.998;2023-05-27T08:19:21;14.53;;;6.80;;
1885;SDS011;943;51.568;6.998;2023-05-27T08:21:56;14.70;;;5.77;;
1885;SDS011;943;51.568;6.998;2023-05-27T08:24:42;11.10;;;5.47;;
1885;SDS011;943;51.568;6.998;2023-05-27T08:30:31;12.33;;;6.37;;
1885;SDS011;943;51.568;6.998;2023-05-27T08:33:06;10.17;;;6.47;;
1885;SDS011;943;51.568;6.998;2023-05-27T08:35:34;14.53;;;6.80;;
1885;SDS011;943;51.568;6.998;2023-05-27T08:38:03;12.53;;;5.80;;
1885;SDS011;943;51.568;6.998;2023-05-27T08:40:37;13.10;;;5.77;;
1885;SDS011;943;51.568;6.998;2023-05-27T08:43:06;17.80;;;6.80;;
1885;SDS011;943;51.568;6.998;2023-05-27T08:45:38;20.07;;;7.00;;
1885;SDS011;943;51.568;6.998;2023-05-27T08:48:12;14.20;;;6.50;;
1885;SDS011;943;51.568;6.998;2023-05-27T08:50:44;14.87;;;5.80;;
1885;SDS011;943;51.568;6.998;2023-05-27T08:53:13;13.07;;;5.60;;
1885;SDS011;943;51.568;6.998;2023-05-27T08:55:44;13.43;;;5.80;;
1885;SDS011;943;51.568;6.998;2023-05-27T08:58:18;12.03;;;5.27;;
1885;SDS011;943;51.568;6.998;2023-05-27T09:00:49;14.73;;;5.50;;
1885;SDS011;943;51.568;6.998;2023-05-27T09:03:20;10.07;;;5.17;;
1885;SDS011;943;51.568;6.998;2023-05-27T09:05:51;12.43;;;5.80;;
1885;SDS011;943;51.568;6.998;2023-05-27T09:08:20;11.57;;;5.63;;
1885;SDS011;943;51.568;6.998;2023-05-27T09:10:57;14.50;;;5.07;;
1885;SDS011;943;51.568;6.998;2023-05-27T09:13:26;12.40;;;6.53;;
1885;SDS011;943;51.568;6.998;2023-05-27T09:15:59;13.10;;;5.93;;
1885;SDS011;943;51.568;6.998;2023-05-27T09:18:33;14.87;;;6.53;;
1885;SDS011;943;51.568;6.998;2023-05-27T09:21:02;16.07;;;6.30;;
1885;SDS011;943;51.568;6.998;2023-05-27T09:23:31;13.83;;;6.47;;
1885;SDS011;943;51.568;6.998;2023-05-27T09:26:09;16.73;;;5.47;;
1885;SDS011;943;51.568;6.998;2023-05-27T09:28:40;11.80;;;4.33;;
1885;SDS011;943;51.568;6.998;2023-05-27T09:31:08;14.20;;;5.87;;
1885;SDS011;943;51.568;6.998;2023-05-27T09:33:38;13.80;;;6.30;;
1885;SDS011;943;51.568;6.998;2023-05-27T09:36:07;15.10;;;5.57;;
1885;SDS011;943;51.568;6.998;2023-05-27T09:38:36;11.73;;;6.13;;
1885;SDS011;943;51.568;6.998;2023-05-27T09:41:04;9.80;;;5.70;;
1885;SDS011;943;51.568;6.998;2023-05-27T09:43:32;13.07;;;6.10;;
1885;SDS011;943;51.568;6.998;2023-05-27T09:46:11;11.43;;;5.83;;
1885;SDS011;943;51.568;6.998;2023-05-27T09:48:42;12.40;;;5.80;;
1885;SDS011;943;51.568;6.998;2023-05-27T09:51:10;13.17;;;5.40;;
1885;SDS011;943;51.568;6.998;2023-05-27T09:53:40;11.10;;;5.57;;
1885;SDS011;943;51.568;6.998;2023-05-27T09:56:13;17.57;;;5.70;;
1885;SDS011;943;51.568;6.998;2023-05-27T09:58:41;13.73;;;4.90;;
1885;SDS011;943;51.568;6.998;2023-05-27T10:01:11;14.03;;;5.60;;
1885;SDS011;943;51.568;6.998;2023-05-27T10:03:44;10.47;;;4.20;;
1885;SDS011;943;51.568;6.998;2023-05-27T10:06:15;17.10;;;4.90;;
1885;SDS011;943;51.568;6.998;2023-05-27T10:08:44;14.23;;;6.93;;
1885;SDS011;943;51.568;6.998;2023-05-27T10:11:12;11.93;;;4.50;;
1885;SDS011;943;51.568;6.998;2023-05-27T10:13:41;13.50;;;5.03;;
1885;SDS011;943;51.568;6.998;2023-05-27T10:16:19;12.83;;;5.53;;
1885;SDS011;943;51.568;6.998;2023-05-27T10:18:53;11.23;;;5.23;;
1885;SDS011;943;51.568;6.998;2023-05-27T10:21:28;8.97;;;4.53;;
1885;SDS011;943;51.568;6.998;2023-05-27T10:24:01;11.77;;;5.40;;
1885;SDS011;943;51.568;6.998;2023-05-27T10:26:33;12.60;;;5.30;;
1885;SDS011;943;51.568;6.998;2023-05-27T10:29:15;11.43;;;5.43;;
1885;SDS011;943;51.568;6.998;2023-05-27T10:31:45;14.93;;;5.50;;
1885;SDS011;943;51.568;6.998;2023-05-27T10:34:23;12.67;;;5.37;;
1885;SDS011;943;51.568;6.998;2023-05-27T10:37:10;13.53;;;6.47;;
1885;SDS011;943;51.568;6.998;2023-05-27T10:39:54;9.50;;;5.30;;
1885;SDS011;943;51.568;6.998;2023-05-27T10:42:24;13.73;;;5.27;;
1885;SDS011;943;51.568;6.998;2023-05-27T10:45:15;17.13;;;5.10;;
1885;SDS011;943;51.568;6.998;2023-05-27T10:47:44;13.57;;;5.50;;
1885;SDS011;943;51.568;6.998;2023-05-27T10:50:14;19.13;;;6.00;;
1885;SDS011;943;51.568;6.998;2023-05-27T10:52:42;10.70;;;5.30;;
1885;SDS011;943;51.568;6.998;2023-05-27T10:55:10;11.07;;;5.33;;
1885;SDS011;943;51.568;6.998;2023-05-27T10:57:39;12.40;;;5.80;;
1885;SDS011;943;51.568;6.998;2023-05-27T11:00:09;12.50;;;5.07;;
1885;SDS011;943;51.568;6.998;2023-05-27T11:02:46;12.93;;;5.63;;
1885;SDS011;943;51.568;6.998;2023-05-27T11:05:15;13.90;;;6.30;;
1885;SDS011;943;51.568;6.998;2023-05-27T11:07:46;16.50;;;6.07;;
1885;SDS011;943;51.568;6.998;2023-05-27T11:10:14;12.30;;;6.87;;
1885;SDS011;943;51.568;6.998;2023-05-27T11:12:43;12.60;;;5.70;;
1885;SDS011;943;51.568;6.998;2023-05-27T11:15:12;11.00;;;4.73;;
1885;SDS011;943;51.568;6.998;2023-05-27T11:17:40;11.47;;;4.57;;
1885;SDS011;943;51.568;6.998;2023-05-27T11:20:08;10.00;;;4.50;;
1885;SDS011;943;51.568;6.998;2023-05-27T11:22:37;9.80;;;5.07;;
1885;SDS011;943;51.568;6.998;2023-05-27T11:25:05;13.80;;;4.80;;
1885;SDS011;943;51.568;6.998;2023-05-27T11:27:36;8.93;;;5.20;;
1885;SDS011;943;51.568;6.998;2023-05-27T11:30:08;12.80;;;4.73;;
1885;SDS011;943;51.568;6.998;2023-05-27T11:32:40;10.87;;;4.10;;
1885;SDS011;943;51.568;6.998;2023-05-27T11:35:14;10.17;;;4.70;;
1885;SDS011;943;51.568;6.998;2023-05-27T11:37:51;12.90;;;5.70;;
1885;SDS011;943;51.568;6.998;2023-05-27T11:40:19;12.20;;;4.97;;
1885;SDS011;943;51.568;6.998;2023-05-27T11:42:48;12.37;;;5.43;;
1885;SDS011;943;51.568;6.998;2023-05-27T11:45:17;13.77;;;4.50;;
1885;SDS011;943;51.568;6.998;2023-05-27T11:47:48;12.63;;;4.80;;
1885;SDS011;943;51.568;6.998;2023-05-27T11:50:18;17.67;;;4.33;;
1885;SDS011;943;51.568;6.998;2023-05-27T11:55:30;10.80;;;5.53;;
1885;SDS011;943;51.568;6.998;2023-05-27T11:57:58;11.20;;;4.80;;
1885;SDS011;943;51.568;6.998;2023-05-27T12:00:26;10.57;;;5.47;;
1885;SDS011;943;51.568;6.998;2023-05-27T12:02:54;10.93;;;5.23;;
1885;SDS011;943;51.568;6.998;2023-05-27T12:05:22;12.83;;;5.57;;
1885;SDS011;943;51.568;6.998;2023-05-27T12:08:10;10.77;;;4.30;;
1885;SDS011;943;51.568;6.998;2023-05-27T12:10:38;12.70;;;5.60;;
1885;SDS011;943;51.568;6.998;2023-05-27T12:13:07;9.43;;;4.93;;
1885;SDS011;943;51.568;6.998;2023-05-27T12:15:35;11.50;;;4.50;;
1885;SDS011;943;51.568;6.998;2023-05-27T12:18:03;10.53;;;4.67;;
1885;SDS011;943;51.568;6.998;2023-05-27T12:20:32;10.50;;;4.40;;
1885;SDS011;943;51.568;6.998;2023-05-27T12:23:00;9.57;;;4.90;;
1885;SDS011;943;51.568;6.998;2023-05-27T12:25:28;12.80;;;4.77;;
1885;SDS011;943;51.568;6.998;2023-05-27T12:28:06;16.93;;;5.10;;
1885;SDS011;943;51.568;6.998;2023-05-27T12:30:39;13.47;;;5.30;;
1885;SDS011;943;51.568;6.998;2023-05-27T12:33:12;9.60;;;4.57;;
1885;SDS011;943;51.568;6.998;2023-05-27T12:35:43;11.33;;;4.57;;
1885;SDS011;943;51.568;6.998;2023-05-27T12:38:12;9.20;;;4.17;;
1885;SDS011;943;51.568;6.998;2023-05-27T12:40:40;7.47;;;3.80;;
1885;SDS011;943;51.568;6.998;2023-05-27T12:43:08;9.60;;;4.97;;
1885;SDS011;943;51.568;6.998;2023-05-27T12:45:36;10.73;;;4.30;;
1885;SDS011;943;51.568;6.998;2023-05-27T12:48:04;8.50;;;3.80;;
1885;SDS011;943;51.568;6.998;2023-05-27T12:50:32;13.70;;;5.10;;
1885;SDS011;943;51.568;6.998;2023-05-27T12:53:02;9.20;;;4.63;;
1885;SDS011;943;51.568;6.998;2023-05-27T12:55:31;10.53;;;3.97;;
1885;SDS011;943;51.568;6.998;2023-05-27T12:58:01;8.43;;;4.37;;
1885;SDS011;943;51.568;6.998;2023-05-27T13:00:30;9.93;;;4.90;;
1885;SDS011;943;51.568;6.998;2023-05-27T13:03:01;13.70;;;4.80;;
1885;SDS011;943;51.568;6.998;2023-05-27T13:05:30;8.13;;;4.30;;
1885;SDS011;943;51.568;6.998;2023-05-27T13:08:04;12.47;;;4.23;;
1885;SDS011;943;51.568;6.998;2023-05-27T13:10:34;9.23;;;5.17;;
1885;SDS011;943;51.568;6.998;2023-05-27T13:13:02;8.63;;;4.50;;
1885;SDS011;943;51.568;6.998;2023-05-27T13:15:32;12.23;;;5.30;;
1885;SDS011;943;51.568;6.998;2023-05-27T13:18:00;10.40;;;4.30;;
1885;SDS011;943;51.568;6.998;2023-05-27T13:20:30;12.80;;;4.20;;
1885;SDS011;943;51.568;6.998;2023-05-27T13:22:58;11.63;;;4.53;;
1885;SDS011;943;51.568;6.998;2023-05-27T13:25:28;16.47;;;4.63;;
1885;SDS011;943;51.568;6.998;2023-05-27T13:27:57;12.70;;;4.70;;
1885;SDS011;943;51.568;6.998;2023-05-27T13:30:26;10.73;;;5.10;;
1885;SDS011;943;51.568;6.998;2023-05-27T13:32:54;10.80;;;5.80;;
1885;SDS011;943;51.568;6.998;2023-05-27T13:35:23;11.97;;;5.10;;
1885;SDS011;943;51.568;6.998;2023-05-27T13:37:51;10.50;;;5.47;;
1885;SDS011;943;51.568;6.998;2023-05-27T13:40:19;15.80;;;6.00;;
1885;SDS011;943;51.568;6.998;2023-05-27T13:42:48;12.57;;;5.67;;
1885;SDS011;943;51.568;6.998;2023-05-27T13:45:16;11.43;;;5.00;;
1885;SDS011;943;51.568;6.998;2023-05-27T13:47:44;9.70;;;5.17;;
1885;SDS011;943;51.568;6.998;2023-05-27T13:50:13;12.90;;;5.13;;
1885;SDS011;943;51.568;6.998;2023-05-27T13:52:41;12.87;;;5.07;;
1885;SDS011;943;51.568;6.998;2023-05-27T13:55:09;8.20;;;4.53;;
1885;SDS011;943;51.568;6.998;2023-05-27T13:57:37;9.83;;;5.03;;
1885;SDS011;943;51.568;6.998;2023-05-27T14:00:06;8.40;;;4.90;;
1885;SDS011;943;51.568;6.998;2023-05-27T14:02:41;13.87;;;5.50;;
1885;SDS011;943;51.568;6.998;2023-05-27T14:05:10;8.47;;;4.67;;
1885;SDS011;943;51.568;6.998;2023-05-27T14:07:41;12.53;;;4.80;;
1885;SDS011;943;51.568;6.998;2023-05-27T14:10:10;10.33;;;5.27;;
1885;SDS011;943;51.568;6.998;2023-05-27T14:12:39;7.73;;;5.07;;
1885;SDS011;943;51.568;6.998;2023-05-27T14:15:07;10.13;;;5.47;;
1885;SDS011;943;51.568;6.998;2023-05-27T14:17:36;10.60;;;5.20;;
1885;SDS011;943;51.568;6.998;2023-05-27T14:20:05;9.93;;;5.30;;
1885;SDS011;943;51.568;6.998;2023-05-27T14:22:37;8.00;;;4.63;;
1885;SDS011;943;51.568;6.998;2023-05-27T14:25:07;9.90;;;5.30;;
1885;SDS011;943;51.568;6.998;2023-05-27T14:27:35;9.20;;;5.03;;
1885;SDS011;943;51.568;6.998;2023-05-27T14:30:03;11.67;;;5.30;;
1885;SDS011;943;51.568;6.998;2023-05-27T14:32:33;8.37;;;3.87;;
1885;SDS011;943;51.568;6.998;2023-05-27T14:35:00;11.07;;;5.10;;
1885;SDS011;943;51.568;6.998;2023-05-27T14:37:28;10.27;;;6.00;;
1885;SDS011;943;51.568;6.998;2023-05-27T14:39:56;12.37;;;4.83;;
1885;SDS011;943;51.568;6.998;2023-05-27T14:42:24;11.33;;;6.00;;
1885;SDS011;943;51.568;6.998;2023-05-27T14:44:53;9.40;;;4.20;;
1885;SDS011;943;51.568;6.998;2023-05-27T14:47:21;14.77;;;5.63;;
1885;SDS011;943;51.568;6.998;2023-05-27T14:49:49;7.40;;;4.50;;
1885;SDS011;943;51.568;6.998;2023-05-27T14:52:17;8.53;;;4.67;;
1885;SDS011;943;51.568;6.998;2023-05-27T14:54:45;8.67;;;5.30;;
1885;SDS011;943;51.568;6.998;2023-05-27T14:57:13;9.40;;;4.60;;
1885;SDS011;943;51.568;6.998;2023-05-27T14:59:41;8.97;;;4.63;;
1885;SDS011;943;51.568;6.998;2023-05-27T15:02:09;11.73;;;5.17;;
1885;SDS011;943;51.568;6.998;2023-05-27T15:04:37;11.27;;;4.73;;
1885;SDS011;943;51.568;6.998;2023-05-27T15:07:05;11.07;;;4.60;;
1885;SDS011;943;51.568;6.998;2023-05-27T15:09:34;9.93;;;4.73;;
1885;SDS011;943;51.568;6.998;2023-05-27T15:12:02;9.43;;;4.70;;
1885;SDS011;943;51.568;6.998;2023-05-27T15:14:30;7.40;;;4.93;;
1885;SDS011;943;51.568;6.998;2023-05-27T15:16:58;9.33;;;4.90;;
1885;SDS011;943;51.568;6.998;2023-05-27T15:19:26;12.47;;;7.10;;
1885;SDS011;943;51.568;6.998;2023-05-27T15:21:54;13.30;;;5.53;;
1885;SDS011;943;51.568;6.998;2023-05-27T15:24:22;12.57;;;5.30;;
1885;SDS011;943;51.568;6.998;2023-05-27T15:26:49;9.37;;;4.40;;
1885;SDS011;943;51.568;6.998;2023-05-27T15:29:17;9.63;;;5.13;;
1885;SDS011;943;51.568;6.998;2023-05-27T15:31:47;15.13;;;6.20;;
1885;SDS011;943;51.568;6.998;2023-05-27T15:34:15;9.20;;;5.63;;
1885;SDS011;943;51.568;6.998;2023-05-27T15:36:46;11.37;;;5.30;;
1885;SDS011;943;51.568;6.998;2023-05-27T15:39:18;8.60;;;5.00;;
1885;SDS011;943;51.568;6.998;2023-05-27T15:41:47;12.33;;;4.57;;
1885;SDS011;943;51.568;6.998;2023-05-27T15:44:14;9.03;;;4.50;;
1885;SDS011;943;51.568;6.998;2023-05-27T15:46:42;8.13;;;4.87;;
1885;SDS011;943;51.568;6.998;2023-05-27T15:49:14;9.87;;;4.87;;
1885;SDS011;943;51.568;6.998;2023-05-27T15:51:43;8.07;;;4.60;;
1885;SDS011;943;51.568;6.998;2023-05-27T15:54:11;10.67;;;5.23;;